Terminal Aerodrome Forecast
Issued by NWS

Home | Current Version | Previous Version | Text Only | Print | Product List | Glossary On
Versions: 1 2 3 4 5 6 7 8 9 10 11 12 13 14 15 16 17 18 19 20 21
369
FTUS43 KAPX 210743 AAA
TAFTVC
TAF AMD
KTVC 210743Z 2108/2206 00000KT 6SM BR OVC006
     FM210900 00000KT 5SM BR OVC004
     FM211200 VRB03KT 4SM -DZ BR OVC006
     FM211800 14007KT 3SM BR OVC008
     FM212100 12007KT 3SM -DZ BR OVC010
     FM220200 VRB03KT 2SM -DZ BR OVC015=

USA.gov is the U.S. government's official web portal to all federal, state and local government web resources and services.